Time;durP1;ratioP1;P1;durP2;ratioP2;P2;SDS_P1;SDS_P2;PMS_P1;PMS_P2;Temp;Humidity;BMP_temperature;BMP_pressure;BME280_temperature;BME280_humidity;BME280_pressure;Samples;Min_cycle;Max_cycle;Signal;HPM_P1;HPM_P2
2022/04/06 00:00:29;;;;;;;2.20;1.20;;;19.30;99.90;;;;;;5111511;28;20665;-75
2022/04/06 00:03:00;;;;;;;2.75;1.23;;;19.40;99.90;;;;;;5111028;28;20718;-76
2022/04/06 00:05:31;;;;;;;2.53;1.25;;;19.40;99.90;;;;;;5107879;28;20272;-76
2022/04/06 00:08:01;;;;;;;2.22;1.15;;;19.40;99.90;;;;;;5107651;28;20191;-76
2022/04/06 00:10:33;;;;;;;2.08;1.10;;;19.30;99.90;;;;;;5111249;28;20206;-75
2022/04/06 00:13:04;;;;;;;2.75;1.20;;;19.20;99.90;;;;;;5110797;28;20611;-75
2022/04/06 00:15:37;;;;;;;3.25;1.20;;;19.20;99.90;;;;;;5110859;28;20709;-75
2022/04/06 00:18:08;;;;;;;1.95;0.98;;;19.20;99.90;;;;;;5110618;28;20210;-75
2022/04/06 00:20:39;;;;;;;4.53;1.20;;;19.20;99.90;;;;;;5093953;28;20215;-75
2022/04/06 00:23:10;;;;;;;1.35;0.85;;;19.10;99.90;;;;;;5098002;28;20194;-76
2022/04/06 00:25:41;;;;;;;2.78;1.05;;;19.00;99.90;;;;;;5094466;28;20272;-76
2022/04/06 00:28:12;;;;;;;1.73;1.05;;;19.00;99.90;;;;;;5090347;28;20203;-76
2022/04/06 00:30:45;;;;;;;1.88;1.10;;;19.00;99.90;;;;;;5098743;28;20676;-76
2022/04/06 00:33:15;;;;;;;1.90;1.02;;;19.00;99.90;;;;;;5111195;28;20240;-75
2022/04/06 00:35:46;;;;;;;3.80;1.02;;;19.00;99.90;;;;;;5111195;28;20230;-75
2022/04/06 00:38:16;;;;;;;2.95;1.30;;;19.00;99.90;;;;;;5111159;28;20338;-75
2022/04/06 00:40:47;;;;;;;2.25;1.00;;;18.90;99.90;;;;;;5109006;28;20611;-75
2022/04/06 00:43:18;;;;;;;4.18;1.42;;;18.90;99.90;;;;;;5101427;28;20286;-75
2022/04/06 00:45:51;;;;;;;2.92;1.60;;;18.90;99.90;;;;;;5110845;28;20205;-75
2022/04/06 00:48:21;;;;;;;6.13;1.92;;;18.90;99.90;;;;;;5103467;28;20687;-76
2022/04/06 00:50:52;;;;;;;8.77;1.80;;;19.00;99.90;;;;;;5102123;28;20193;-75
2022/04/06 00:53:25;;;;;;;6.70;1.80;;;19.00;99.90;;;;;;5105084;28;20203;-75
2022/04/06 00:55:56;;;;;;;4.03;1.40;;;19.00;99.90;;;;;;5108571;28;20218;-75
2022/04/06 00:58:27;;;;;;;4.63;1.33;;;19.00;99.90;;;;;;5109091;28;20226;-75
2022/04/06 01:00:59;;;;;;;2.72;1.20;;;19.00;99.90;;;;;;5110239;28;20198;-75
2022/04/06 01:03:30;;;;;;;4.32;1.23;;;19.00;99.90;;;;;;5110207;28;20251;-75
2022/04/06 01:06:01;;;;;;;2.53;1.00;;;19.00;99.90;;;;;;5109817;28;20303;-74
2022/04/06 01:08:32;;;;;;;2.47;1.10;;;19.00;99.90;;;;;;5110808;28;20584;-76
2022/04/06 01:11:03;;;;;;;5.15;1.10;;;18.90;99.90;;;;;;5110293;28;20545;-76
2022/04/06 01:13:34;;;;;;;2.78;1.25;;;18.90;99.90;;;;;;5110224;28;20210;-75
2022/04/06 01:16:07;;;;;;;4.68;1.20;;;18.90;99.90;;;;;;5104562;28;20244;-76
2022/04/06 01:18:39;;;;;;;3.95;1.88;;;19.00;99.90;;;;;;5089664;28;20236;-76
2022/04/06 01:21:11;;;;;;;4.45;1.50;;;19.10;99.90;;;;;;5092845;28;20234;-75
2022/04/06 01:23:46;;;;;;;3.90;1.33;;;19.10;99.90;;;;;;5110526;28;20194;-76
2022/04/06 01:26:17;;;;;;;4.20;1.60;;;19.10;99.90;;;;;;5110766;28;20202;-76
2022/04/06 01:28:48;;;;;;;3.92;1.40;;;19.10;99.90;;;;;;5110456;28;20228;-75
2022/04/06 01:31:19;;;;;;;2.72;1.15;;;19.20;99.90;;;;;;5109441;28;20585;-76
2022/04/06 01:33:49;;;;;;;2.80;1.20;;;19.20;99.90;;;;;;5110232;28;20256;-76
2022/04/06 01:36:20;;;;;;;2.17;1.00;;;19.20;99.90;;;;;;5109799;28;20219;-77
2022/04/06 01:38:53;;;;;;;2.75;0.68;;;19.30;99.90;;;;;;5109922;28;20202;-76
2022/04/06 01:41:23;;;;;;;1.70;0.60;;;19.30;99.90;;;;;;5109929;28;20276;-76
2022/04/06 01:43:55;;;;;;;1.35;0.70;;;19.30;99.90;;;;;;5100332;28;20201;-76
2022/04/06 01:46:26;;;;;;;2.30;1.20;;;19.40;99.90;;;;;;5110061;28;20198;-76
2022/04/06 01:54:32;;;;;;;2.08;0.80;;;19.30;99.90;;;;;;5110175;28;20719;-76
2022/04/06 01:57:02;;;;;;;1.80;0.90;;;19.30;99.90;;;;;;5096533;28;20239;-76
2022/04/06 01:59:33;;;;;;;1.63;0.80;;;19.20;99.90;;;;;;5105041;28;20682;-76
2022/04/06 02:02:05;;;;;;;1.73;0.90;;;19.30;99.90;;;;;;5109525;28;20229;-76
2022/04/06 02:04:36;;;;;;;2.35;0.90;;;19.30;99.90;;;;;;5109981;28;20194;-76
2022/04/06 02:07:07;;;;;;;2.72;1.20;;;19.30;99.90;;;;;;5108698;28;20222;-76
2022/04/06 02:09:40;;;;;;;2.10;1.02;;;19.30;99.90;;;;;;5109473;28;20198;-76
2022/04/06 02:12:12;;;;;;;2.25;1.10;;;19.40;99.90;;;;;;5111510;28;20207;-77
2022/04/06 02:14:44;;;;;;;2.40;1.10;;;19.40;99.90;;;;;;5113445;28;20199;-77
2022/04/06 02:17:14;;;;;;;2.90;1.10;;;19.40;99.90;;;;;;5113621;28;20226;-77
2022/04/06 02:19:45;;;;;;;1.75;0.70;;;19.40;99.90;;;;;;5114225;28;20205;-77
2022/04/06 02:22:18;;;;;;;2.78;1.02;;;19.40;99.90;;;;;;5109190;28;20195;-77
2022/04/06 02:24:50;;;;;;;1.77;0.70;;;19.40;99.90;;;;;;5097461;28;20206;-76
2022/04/06 02:27:21;;;;;;;1.90;0.55;;;19.30;99.90;;;;;;5092718;28;20257;-77
2022/04/06 02:29:52;;;;;;;2.38;0.80;;;19.30;99.90;;;;;;5101902;28;20206;-77
2022/04/06 02:32:23;;;;;;;1.40;0.80;;;19.40;99.90;;;;;;5113052;28;20207;-77
2022/04/06 02:34:53;;;;;;;1.83;1.00;;;19.40;99.90;;;;;;5113064;28;20228;-76
2022/04/06 02:37:24;;;;;;;2.45;0.90;;;19.40;99.90;;;;;;5113045;28;20226;-76
2022/04/06 02:39:56;;;;;;;2.60;1.00;;;19.40;99.90;;;;;;5109183;28;20191;-76
2022/04/06 02:42:27;;;;;;;3.15;0.90;;;19.40;99.90;;;;;;5111194;28;20194;-76
2022/04/06 02:44:58;;;;;;;2.53;0.80;;;19.30;99.90;;;;;;5113133;28;20255;-76
2022/04/06 02:47:28;;;;;;;1.25;0.90;;;19.30;99.90;;;;;;5112560;28;20199;-76
2022/04/06 02:49:59;;;;;;;1.48;0.80;;;19.30;99.90;;;;;;5095988;28;20195;-76
2022/04/06 02:52:30;;;;;;;1.42;0.70;;;19.20;99.90;;;;;;5107489;28;20202;-77
2022/04/06 02:55:02;;;;;;;1.80;0.70;;;19.10;99.90;;;;;;5112244;28;20237;-78
2022/04/06 02:57:33;;;;;;;0.98;0.60;;;19.00;99.90;;;;;;5112011;28;20234;-78
2022/04/06 03:00:04;;;;;;;1.58;0.90;;;19.00;99.90;;;;;;5111639;28;20203;-76
2022/04/06 03:02:34;;;;;;;1.20;1.10;;;19.10;99.90;;;;;;5112322;28;20206;-78
2022/04/06 03:05:05;;;;;;;1.38;1.10;;;19.10;99.90;;;;;;5112202;28;20219;-77
2022/04/06 03:07:36;;;;;;;1.50;0.98;;;19.10;99.90;;;;;;5112285;28;20202;-77
2022/04/06 03:10:09;;;;;;;4.28;1.25;;;19.10;99.90;;;;;;5112107;28;20206;-76
2022/04/06 03:12:40;;;;;;;2.70;0.90;;;19.10;99.90;;;;;;5112056;28;20665;-77
2022/04/06 03:15:12;;;;;;;2.33;1.27;;;19.10;99.90;;;;;;5107859;28;20672;-76
2022/04/06 03:17:42;;;;;;;2.40;1.20;;;19.10;99.90;;;;;;5112167;28;20263;-76
2022/04/06 03:20:14;;;;;;;3.53;1.50;;;19.10;99.90;;;;;;5111942;28;20205;-76
2022/04/06 03:22:45;;;;;;;3.97;1.75;;;19.20;99.90;;;;;;5112449;28;20741;-77
2022/04/06 03:25:17;;;;;;;5.03;1.50;;;19.20;99.90;;;;;;5112364;28;20199;-77
2022/04/06 03:27:48;;;;;;;3.97;1.80;;;19.20;99.90;;;;;;5107653;28;20194;-77
2022/04/06 03:30:19;;;;;;;3.72;1.83;;;19.20;99.90;;;;;;5100434;28;20259;-77
2022/04/06 03:32:50;;;;;;;3.13;1.95;;;19.30;99.90;;;;;;5091682;28;20256;-77
2022/04/06 03:35:20;;;;;;;4.68;1.70;;;19.30;99.90;;;;;;5091507;28;20201;-75
2022/04/06 03:37:52;;;;;;;4.55;1.70;;;19.40;99.90;;;;;;5100060;28;20322;-75
2022/04/06 03:40:25;;;;;;;3.95;1.50;;;19.40;99.90;;;;;;5107778;28;20218;-77
2022/04/06 03:42:56;;;;;;;7.70;1.95;;;19.40;99.90;;;;;;5099802;28;20304;-76
2022/04/06 03:45:26;;;;;;;4.55;2.58;;;19.50;99.90;;;;;;5111672;28;20198;-76
2022/04/06 03:47:57;;;;;;;4.95;2.47;;;19.50;99.90;;;;;;5111725;28;20669;-76
2022/04/06 03:50:28;;;;;;;4.45;1.90;;;19.50;99.90;;;;;;5107484;28;20254;-76
2022/04/06 03:52:59;;;;;;;4.40;1.30;;;19.50;99.90;;;;;;5111301;28;20191;-75
2022/04/06 03:55:31;;;;;;;4.05;1.65;;;19.50;99.90;;;;;;5110625;28;20195;-76
2022/04/06 03:58:02;;;;;;;2.42;1.10;;;19.50;99.90;;;;;;5110982;28;20259;-76
2022/04/06 04:00:33;;;;;;;2.25;1.20;;;19.60;99.90;;;;;;5109367;28;20226;-76
2022/04/06 04:03:05;;;;;;;3.33;1.20;;;19.60;99.90;;;;;;5111260;28;20199;-76
2022/04/06 04:05:36;;;;;;;4.68;1.48;;;19.60;99.90;;;;;;5111054;28;20216;-77
2022/04/06 04:08:07;;;;;;;6.88;1.35;;;19.60;99.90;;;;;;5111242;28;20220;-76
2022/04/06 04:10:40;;;;;;;3.85;1.60;;;19.60;99.90;;;;;;5110915;28;20199;-77
2022/04/06 04:13:11;;;;;;;3.58;1.52;;;19.60;99.90;;;;;;5110995;28;20263;-77
2022/04/06 04:15:42;;;;;;;2.20;1.08;;;19.60;99.90;;;;;;5111035;28;20226;-77
2022/04/06 04:18:12;;;;;;;3.95;1.50;;;19.60;99.90;;;;;;5090615;28;20272;-78
2022/04/06 04:20:45;;;;;;;3.42;1.30;;;19.60;99.90;;;;;;5090672;28;20206;-77
2022/04/06 04:23:16;;;;;;;2.85;1.25;;;19.70;99.90;;;;;;5091197;28;20202;-77
2022/04/06 04:25:48;;;;;;;3.58;1.30;;;19.60;99.90;;;;;;5094040;28;20277;-77
2022/04/06 04:28:19;;;;;;;4.03;1.40;;;19.70;99.90;;;;;;5094357;28;20205;-77
2022/04/06 04:30:50;;;;;;;2.47;1.23;;;19.70;99.90;;;;;;5110517;28;20631;-77
2022/04/06 04:33:20;;;;;;;1.52;1.00;;;19.60;99.90;;;;;;5110302;28;20210;-77
2022/04/06 04:35:51;;;;;;;2.35;1.13;;;19.60;99.90;;;;;;5110271;28;20268;-77
2022/04/06 04:38:22;;;;;;;1.70;0.93;;;19.60;99.90;;;;;;5110369;28;20233;-77
2022/04/06 04:40:54;;;;;;;4.47;1.25;;;19.70;99.90;;;;;;5102444;28;20187;-77
2022/04/06 04:43:25;;;;;;;4.03;1.30;;;19.80;99.90;;;;;;5094903;28;20248;-77
2022/04/06 04:45:56;;;;;;;5.93;1.63;;;19.80;99.90;;;;;;5110201;28;20259;-77
2022/04/06 04:48:26;;;;;;;3.53;1.30;;;19.90;99.90;;;;;;5109970;28;20198;-77
2022/04/06 04:50:57;;;;;;;3.25;1.50;;;19.90;99.90;;;;;;5110222;28;20268;-77
2022/04/06 04:53:28;;;;;;;2.50;1.25;;;20.00;99.90;;;;;;5110428;28;20213;-77
2022/04/06 04:56:00;;;;;;;1.98;1.17;;;20.00;99.90;;;;;;5110074;28;20206;-76
2022/04/06 04:58:31;;;;;;;5.90;1.65;;;20.00;99.90;;;;;;5109966;28;20234;-77
2022/04/06 05:01:02;;;;;;;1.83;1.15;;;20.00;99.90;;;;;;5110100;28;20199;-77
2022/04/06 05:03:32;;;;;;;3.78;1.10;;;20.00;99.90;;;;;;5110235;28;20209;-76
2022/04/06 05:06:03;;;;;;;1.50;1.05;;;19.90;99.90;;;;;;5110305;28;20225;-75
2022/04/06 05:08:34;;;;;;;3.55;1.15;;;19.90;99.90;;;;;;5110237;28;20232;-76
2022/04/06 05:11:06;;;;;;;1.40;1.15;;;19.90;99.90;;;;;;5110399;28;20202;-75
2022/04/06 05:13:37;;;;;;;3.78;1.38;;;19.80;99.90;;;;;;5109217;28;20201;-76
2022/04/06 05:16:08;;;;;;;1.75;0.88;;;19.80;99.90;;;;;;5110305;28;20199;-75
2022/04/06 05:18:39;;;;;;;2.05;0.90;;;19.80;99.90;;;;;;5110152;28;20278;-75
2022/04/06 05:21:09;;;;;;;2.30;0.82;;;19.70;99.90;;;;;;5110134;28;20214;-76
2022/04/06 05:23:41;;;;;;;1.75;0.98;;;19.70;99.90;;;;;;5110426;28;20565;-76
2022/04/06 05:26:13;;;;;;;1.67;1.10;;;19.70;99.90;;;;;;5089650;28;20237;-77
2022/04/06 05:28:44;;;;;;;3.25;1.15;;;19.60;99.90;;;;;;5090193;28;20207;-76
2022/04/06 05:31:15;;;;;;;2.20;1.20;;;19.60;99.90;;;;;;5090069;28;20196;-76
2022/04/06 05:33:45;;;;;;;2.22;1.25;;;19.60;99.90;;;;;;5090234;28;20196;-77
2022/04/06 05:36:16;;;;;;;3.55;1.50;;;19.60;99.90;;;;;;5093885;28;20199;-76
2022/04/06 05:38:46;;;;;;;3.33;1.02;;;19.60;99.90;;;;;;5109116;28;20210;-76
2022/04/06 05:41:19;;;;;;;3.85;1.65;;;19.50;99.90;;;;;;5109766;28;20714;-76
2022/04/06 05:43:50;;;;;;;3.13;1.50;;;19.60;99.90;;;;;;5104028;28;20658;-76
2022/04/06 05:46:20;;;;;;;3.53;1.45;;;19.50;99.90;;;;;;5112408;28;20248;-76
2022/04/06 05:48:51;;;;;;;4.32;1.70;;;19.50;99.90;;;;;;5113546;28;20194;-76
2022/04/06 05:51:22;;;;;;;4.70;2.20;;;19.50;99.90;;;;;;5105723;28;20217;-77
2022/04/06 05:53:52;;;;;;;4.43;2.10;;;19.50;99.90;;;;;;5102007;28;20232;-77
2022/04/06 05:56:25;;;;;;;3.47;1.65;;;19.50;99.90;;;;;;5113230;28;20201;-76
2022/04/06 05:58:55;;;;;;;2.67;1.67;;;19.40;99.90;;;;;;5113210;28;20713;-76
2022/04/06 06:01:26;;;;;;;4.30;1.70;;;19.40;99.90;;;;;;5113335;28;20625;-76
2022/04/06 06:03:57;;;;;;;4.47;1.55;;;19.40;99.90;;;;;;5113169;28;20198;-76
2022/04/06 06:06:28;;;;;;;4.35;1.25;;;19.40;99.90;;;;;;5113199;28;20214;-76
2022/04/06 06:08:58;;;;;;;3.90;2.15;;;19.40;99.90;;;;;;5112216;28;20255;-76
2022/04/06 06:11:31;;;;;;;3.17;2.05;;;19.40;99.90;;;;;;5112764;28;20658;-76
2022/04/06 06:14:01;;;;;;;4.40;2.35;;;19.40;99.90;;;;;;5112854;28;20255;-75
2022/04/06 06:16:32;;;;;;;4.47;2.15;;;19.40;99.90;;;;;;5108627;28;20240;-76
2022/04/06 06:19:03;;;;;;;4.22;1.70;;;19.40;99.90;;;;;;5112855;28;20264;-76
2022/04/06 06:21:33;;;;;;;2.67;1.20;;;19.40;99.90;;;;;;5113283;28;20202;-75
2022/04/06 06:24:06;;;;;;;2.97;0.98;;;19.40;99.90;;;;;;5113189;28;20198;-74
2022/04/06 06:26:40;;;;;;;3.42;1.10;;;19.40;99.90;;;;;;5112370;28;20281;-75
2022/04/06 06:29:11;;;;;;;2.05;0.93;;;19.40;99.90;;;;;;5112686;28;20293;-74
2022/04/06 06:31:42;;;;;;;2.47;1.02;;;19.50;99.90;;;;;;5109215;28;20199;-76
2022/04/06 06:34:13;;;;;;;3.30;1.08;;;19.50;99.90;;;;;;5102354;28;20195;-76
2022/04/06 06:36:43;;;;;;;4.43;1.27;;;19.50;99.90;;;;;;5112101;28;20195;-75
2022/04/06 06:39:14;;;;;;;4.65;1.20;;;19.50;99.90;;;;;;5112774;28;20194;-75
2022/04/06 06:41:46;;;;;;;4.68;1.15;;;19.50;99.90;;;;;;5102776;28;20200;-76
2022/04/06 06:44:17;;;;;;;5.55;1.25;;;19.50;99.90;;;;;;5100391;28;20202;-76
2022/04/06 06:46:48;;;;;;;2.85;1.20;;;19.50;99.90;;;;;;5104244;28;20195;-77
2022/04/06 06:49:19;;;;;;;3.42;1.00;;;19.40;99.90;;;;;;5112378;28;20237;-76
2022/04/06 06:51:49;;;;;;;2.90;1.00;;;19.40;99.90;;;;;;5092204;28;20199;-76
2022/04/06 06:54:20;;;;;;;2.83;1.10;;;19.40;99.90;;;;;;5105286;28;20203;-76
2022/04/06 06:56:53;;;;;;;2.05;1.00;;;19.40;99.90;;;;;;5111374;28;20194;-76
2022/04/06 06:59:23;;;;;;;6.57;0.98;;;19.40;99.90;;;;;;5112185;28;20194;-76
2022/04/06 07:01:54;;;;;;;2.78;0.85;;;19.40;99.90;;;;;;5110105;28;20191;-76
2022/04/06 07:04:25;;;;;;;3.63;0.98;;;19.40;99.90;;;;;;5112462;28;20252;-77
2022/04/06 07:06:55;;;;;;;4.80;1.05;;;19.40;99.90;;;;;;5111778;28;20215;-77
2022/04/06 07:09:26;;;;;;;4.90;1.20;;;19.40;99.90;;;;;;5112123;28;20191;-77
2022/04/06 07:11:58;;;;;;;2.17;1.10;;;19.40;99.90;;;;;;5112023;28;20219;-77
2022/04/06 07:14:29;;;;;;;1.90;0.90;;;19.30;99.90;;;;;;5112047;28;20190;-77
2022/04/06 07:17:00;;;;;;;2.97;1.40;;;19.30;99.90;;;;;;5111562;28;20194;-77
2022/04/06 07:19:31;;;;;;;4.38;1.17;;;19.30;99.90;;;;;;5112091;28;20285;-76
2022/04/06 07:22:02;;;;;;;3.38;1.33;;;19.30;99.90;;;;;;5111898;28;20187;-77
2022/04/06 07:24:32;;;;;;;3.88;1.17;;;19.30;99.90;;;;;;5112003;28;20626;-76
2022/04/06 07:27:05;;;;;;;4.05;1.52;;;19.20;99.90;;;;;;5111791;28;20191;-77
2022/04/06 07:29:35;;;;;;;3.90;1.00;;;19.30;99.90;;;;;;5112123;28;20205;-76
2022/04/06 07:32:07;;;;;;;1.67;1.00;;;19.30;99.90;;;;;;5111792;28;20247;-76
2022/04/06 07:34:38;;;;;;;2.75;1.02;;;19.20;99.90;;;;;;5111473;28;20206;-77
2022/04/06 07:37:08;;;;;;;3.33;1.10;;;19.30;99.90;;;;;;5111266;28;20726;-76
2022/04/06 07:39:39;;;;;;;2.65;1.10;;;19.30;99.90;;;;;;5111319;28;20563;-77
2022/04/06 07:42:12;;;;;;;1.83;1.02;;;19.30;99.90;;;;;;5097047;28;20202;-77
2022/04/06 07:44:42;;;;;;;2.50;1.30;;;19.30;99.90;;;;;;5111051;28;20191;-77
2022/04/06 07:47:13;;;;;;;2.92;1.20;;;19.30;99.90;;;;;;5108104;28;20209;-76
2022/04/06 07:49:44;;;;;;;2.95;1.10;;;19.30;99.90;;;;;;5111111;28;20664;-76
2022/04/06 07:52:15;;;;;;;3.80;1.30;;;19.30;99.90;;;;;;5111149;28;20198;-75
2022/04/06 07:54:46;;;;;;;2.80;1.15;;;19.40;99.90;;;;;;5111597;28;20677;-76
2022/04/06 07:57:18;;;;;;;4.55;1.27;;;19.30;99.90;;;;;;5110087;28;20235;-76
2022/04/06 07:59:49;;;;;;;4.30;1.20;;;19.30;99.90;;;;;;5111329;28;20567;-77
2022/04/06 08:02:20;;;;;;;3.50;0.90;;;19.30;99.90;;;;;;5111888;28;20206;-75
2022/04/06 08:04:50;;;;;;;3.47;0.93;;;19.30;99.90;;;;;;5111102;28;20194;-74
2022/04/06 08:07:21;;;;;;;1.98;1.10;;;19.30;99.90;;;;;;5090730;28;20569;-74
2022/04/06 08:09:52;;;;;;;2.65;0.90;;;19.30;99.90;;;;;;5093677;28;20489;-73
2022/04/06 08:12:24;;;;;;;2.03;1.08;;;19.30;99.90;;;;;;5100644;28;20331;-74
2022/04/06 08:14:55;;;;;;;2.90;1.15;;;19.20;99.90;;;;;;5104851;28;20202;-74
2022/04/06 08:17:26;;;;;;;4.45;1.10;;;19.20;99.90;;;;;;5110892;28;20271;-74
2022/04/06 08:19:57;;;;;;;1.95;1.13;;;19.20;99.90;;;;;;5111240;28;20194;-74
2022/04/06 08:22:27;;;;;;;2.58;1.02;;;19.20;99.90;;;;;;5111049;28;20198;-74
2022/04/06 08:24:58;;;;;;;3.65;1.35;;;19.10;99.90;;;;;;5110937;28;20637;-73
2022/04/06 08:27:32;;;;;;;2.05;1.08;;;19.10;99.90;;;;;;5107202;28;20194;-76
2022/04/06 08:30:02;;;;;;;2.50;1.08;;;19.10;99.90;;;;;;5096051;28;20194;-74
2022/04/06 08:32:33;;;;;;;2.97;1.00;;;19.10;99.90;;;;;;5110959;28;20201;-73
2022/04/06 08:35:04;;;;;;;2.03;0.80;;;19.10;99.90;;;;;;5111448;28;20205;-73
2022/04/06 08:37:35;;;;;;;0.88;0.60;;;19.20;99.90;;;;;;5111270;28;20205;-74
2022/04/06 08:40:08;;;;;;;1.20;0.80;;;19.10;99.90;;;;;;5106946;28;20209;-73
2022/04/06 08:42:41;;;;;;;2.35;1.17;;;19.10;99.90;;;;;;5100565;28;20199;-74
2022/04/06 08:45:12;;;;;;;1.60;1.30;;;19.10;99.90;;;;;;5110426;28;20619;-74
2022/04/06 08:47:44;;;;;;;2.53;1.20;;;19.10;99.90;;;;;;5110581;28;20198;-73
2022/04/06 08:50:14;;;;;;;3.45;1.10;;;19.10;99.90;;;;;;5089975;28;20206;-75
2022/04/06 08:52:45;;;;;;;2.90;1.55;;;19.10;99.90;;;;;;5102200;28;20260;-74
2022/04/06 08:55:17;;;;;;;2.53;1.02;;;19.10;99.90;;;;;;5111086;28;20198;-75
2022/04/06 08:57:50;;;;;;;1.85;1.17;;;19.10;99.90;;;;;;5110752;28;20238;-75
2022/04/06 09:00:21;;;;;;;5.10;1.60;;;19.10;99.90;;;;;;5107781;28;20199;-74
2022/04/06 09:02:52;;;;;;;2.30;0.93;;;19.10;99.90;;;;;;5089544;28;20253;-75
2022/04/06 09:05:25;;;;;;;2.67;1.05;;;19.10;99.90;;;;;;5104553;28;20259;-74
2022/04/06 09:07:56;;;;;;;2.30;1.10;;;19.00;99.90;;;;;;5108690;28;20194;-74
2022/04/06 09:10:34;;;;;;;2.33;1.15;;;19.00;99.90;;;;;;5108064;28;20251;-74
2022/04/06 09:13:14;;;;;;;2.47;1.25;;;19.00;99.90;;;;;;5108841;28;20247;-73
2022/04/06 09:15:46;;;;;;;1.60;0.90;;;19.00;99.90;;;;;;5108540;28;20198;-72
2022/04/06 09:18:17;;;;;;;1.45;0.88;;;19.10;99.90;;;;;;5108537;28;20222;-73
2022/04/06 09:20:47;;;;;;;1.88;1.05;;;19.10;99.90;;;;;;5111888;28;20194;-72
2022/04/06 09:23:23;;;;;;;2.53;1.10;;;19.10;99.90;;;;;;5110962;28;20198;-71
2022/04/06 09:25:54;;;;;;;0.98;0.80;;;19.10;99.90;;;;;;5113807;28;20255;-71
2022/04/06 09:28:26;;;;;;;1.77;1.00;;;19.20;99.90;;;;;;5113987;28;20685;-74
2022/04/06 09:30:57;;;;;;;2.70;1.25;;;19.20;99.90;;;;;;5113801;28;20194;-73
2022/04/06 09:33:31;;;;;;;1.63;1.00;;;19.10;99.90;;;;;;5099242;28;20199;-74
2022/04/06 09:36:02;;;;;;;1.30;1.20;;;19.20;99.90;;;;;;5112215;28;20777;-74
2022/04/06 09:38:32;;;;;;;2.25;1.52;;;19.20;99.90;;;;;;5113972;28;20222;-73
2022/04/06 09:41:16;;;;;;;2.03;0.90;;;19.10;99.90;;;;;;5111842;28;20202;-74
2022/04/06 09:43:50;;;;;;;3.20;1.15;;;19.10;99.90;;;;;;5091686;28;20658;-74
2022/04/06 09:49:10;;;;;;;2.72;1.70;;;19.10;99.90;;;;;;5109627;28;20205;-74
2022/04/06 09:51:42;;;;;;;1.70;1.17;;;19.10;99.90;;;;;;5113618;28;20997;-73
2022/04/06 09:54:14;;;;;;;1.95;1.30;;;19.10;99.90;;;;;;5113478;28;20206;-73
2022/04/06 09:56:46;;;;;;;4.03;2.88;;;19.00;99.90;;;;;;5113189;28;20195;-72
2022/04/06 09:59:20;;;;;;;5.53;3.10;;;19.00;99.90;;;;;;5113881;28;20218;-74
2022/04/06 10:01:52;;;;;;;3.95;2.30;;;19.00;99.90;;;;;;5113708;28;20657;-74
2022/04/06 10:04:25;;;;;;;2.42;1.60;;;19.00;99.90;;;;;;5113290;28;20194;-74
2022/04/06 10:06:58;;;;;;;1.38;1.20;;;19.00;99.90;;;;;;5113434;28;20211;-73
2022/04/06 10:09:29;;;;;;;1.40;1.25;;;19.00;99.90;;;;;;5112264;28;20244;-74
2022/04/06 10:12:00;;;;;;;2.67;1.40;;;19.00;99.90;;;;;;5113608;28;20267;-73
2022/04/06 10:14:32;;;;;;;2.45;1.80;;;19.00;99.90;;;;;;5113356;28;20202;-74
2022/04/06 10:17:04;;;;;;;2.03;1.63;;;19.00;99.90;;;;;;5113685;28;20681;-74
2022/04/06 10:19:44;;;;;;;2.70;2.00;;;19.00;99.90;;;;;;5113563;28;20579;-72
2022/04/06 10:22:20;;;;;;;2.05;1.30;;;19.00;99.90;;;;;;5113363;28;20198;-72
2022/04/06 10:25:01;;;;;;;2.85;1.70;;;19.00;99.90;;;;;;5113489;28;20228;-73
2022/04/06 10:27:35;;;;;;;2.25;1.77;;;19.00;99.90;;;;;;5112029;28;20651;-71
2022/04/06 10:30:17;;;;;;;2.22;1.42;;;18.90;99.90;;;;;;5112828;28;20206;-72
2022/04/06 10:32:49;;;;;;;1.83;1.10;;;18.90;99.90;;;;;;5094991;28;20244;-72
2022/04/06 10:35:24;;;;;;;2.78;1.10;;;18.90;99.90;;;;;;5102100;28;20729;-72
2022/04/06 10:38:14;;;;;;;2.33;1.20;;;18.90;99.90;;;;;;5092719;28;20199;-72
2022/04/06 10:41:08;;;;;;;1.75;1.02;;;18.90;99.90;;;;;;5108120;28;20277;-72
2022/04/06 10:43:55;;;;;;;1.42;1.30;;;18.90;99.90;;;;;;5110619;28;20198;-74
2022/04/06 10:46:40;;;;;;;1.13;1.02;;;18.90;99.90;;;;;;5112288;28;20230;-72
2022/04/06 10:49:16;;;;;;;1.85;1.30;;;18.90;99.90;;;;;;5108831;28;20255;-73
2022/04/06 10:51:48;;;;;;;1.77;1.05;;;18.90;99.90;;;;;;5112669;28;20606;-73
2022/04/06 10:54:43;;;;;;;3.45;2.10;;;18.90;99.90;;;;;;5112825;28;20206;-73
2022/04/06 10:57:14;;;;;;;11.18;7.85;;;18.90;99.90;;;;;;5112280;28;20230;-73
2022/04/06 10:59:44;;;;;;;2.03;1.30;;;18.90;99.90;;;;;;5111934;28;20295;-72
2022/04/06 11:02:29;;;;;;;1.23;1.10;;;18.90;99.90;;;;;;5112481;28;20243;-73
2022/04/06 11:04:59;;;;;;;1.95;1.38;;;18.90;99.90;;;;;;5112225;28;20313;-73
2022/04/06 11:10:34;;;;;;;1.98;1.23;;;18.80;99.90;;;;;;5111895;28;20201;-73
2022/04/06 11:13:08;;;;;;;2.05;1.23;;;18.80;99.90;;;;;;5112237;28;20210;-73
2022/04/06 11:15:44;;;;;;;2.35;1.13;;;18.80;99.90;;;;;;5112160;28;20243;-73
2022/04/06 11:18:49;;;;;;;1.30;1.10;;;18.90;99.90;;;;;;5112019;28;20205;-73
2022/04/06 11:21:20;;;;;;;2.53;2.10;;;18.90;99.90;;;;;;5049186;28;20211;-73
2022/04/06 11:23:52;;;;;;;3.30;2.35;;;18.80;99.90;;;;;;5082094;28;20199;-74
2022/04/06 11:26:23;;;;;;;2.35;1.40;;;18.80;99.90;;;;;;5091425;28;20241;-72
2022/04/06 11:29:00;;;;;;;1.70;1.27;;;18.70;99.90;;;;;;5091453;28;20260;-73
2022/04/06 11:31:30;;;;;;;1.73;1.00;;;18.80;99.90;;;;;;5091236;28;20199;-73
2022/04/06 11:34:03;;;;;;;1.20;1.10;;;18.80;99.90;;;;;;5101354;28;20203;-73
2022/04/06 11:36:40;;;;;;;2.05;1.10;;;18.80;99.90;;;;;;5111993;28;20198;-73
2022/04/06 11:39:11;;;;;;;1.58;1.13;;;18.80;99.90;;;;;;5109973;28;20748;-73
2022/04/06 11:41:46;;;;;;;2.53;1.02;;;18.80;99.90;;;;;;5111478;28;20187;-72
2022/04/06 11:44:24;;;;;;;1.42;1.10;;;18.90;99.90;;;;;;5111638;28;20671;-73
2022/04/06 11:46:55;;;;;;;1.45;1.13;;;18.90;99.90;;;;;;5111566;28;20201;-72
2022/04/06 11:49:30;;;;;;;5.97;1.30;;;18.90;99.90;;;;;;5111401;28;20198;-74
2022/04/06 11:52:01;;;;;;;1.23;1.13;;;18.90;99.90;;;;;;5111062;28;20205;-73
2022/04/06 11:54:31;;;;;;;2.28;1.20;;;19.00;99.90;;;;;;5111279;28;20198;-74
2022/04/06 11:57:06;;;;;;;1.65;1.20;;;19.00;99.90;;;;;;5090954;28;20403;-74
2022/04/06 11:59:39;;;;;;;1.40;1.10;;;19.00;99.90;;;;;;5090753;28;20219;-73
2022/04/06 12:02:09;;;;;;;1.52;1.10;;;19.00;99.90;;;;;;5091004;28;20268;-72
2022/04/06 12:04:42;;;;;;;1.45;1.20;;;19.00;99.90;;;;;;5092289;28;20708;-74
2022/04/06 12:07:21;;;;;;;1.50;1.30;;;19.00;99.90;;;;;;5107844;28;20726;-75
2022/04/06 12:09:52;;;;;;;2.78;1.20;;;19.10;99.90;;;;;;5111636;28;20202;-74
2022/04/06 12:12:24;;;;;;;2.03;1.08;;;19.10;99.90;;;;;;5111753;28;20194;-73
2022/04/06 12:14:56;;;;;;;1.77;1.10;;;19.10;99.90;;;;;;5111147;28;20286;-72
2022/04/06 12:17:27;;;;;;;2.22;1.30;;;19.00;99.90;;;;;;5111361;28;20560;-74
2022/04/06 12:19:59;;;;;;;1.73;1.20;;;19.00;99.90;;;;;;5111040;28;20299;-72
2022/04/06 12:22:30;;;;;;;1.60;1.10;;;19.00;99.90;;;;;;5111148;28;20777;-73
2022/04/06 12:25:01;;;;;;;1.20;1.00;;;19.00;99.90;;;;;;5110747;28;20251;-73
2022/04/06 12:27:32;;;;;;;1.70;1.30;;;19.00;99.90;;;;;;5111242;28;20225;-73
2022/04/06 12:30:11;;;;;;;1.55;1.20;;;19.00;99.90;;;;;;5110788;28;20199;-73
2022/04/06 12:32:49;;;;;;;1.67;1.10;;;19.00;99.90;;;;;;5111402;28;20194;-74
2022/04/06 12:35:24;;;;;;;2.17;1.35;;;19.00;99.90;;;;;;5111748;28;20205;-73
2022/04/06 12:37:54;;;;;;;2.55;1.30;;;19.00;99.90;;;;;;5109253;28;20198;-72
2022/04/06 12:40:26;;;;;;;2.10;1.90;;;19.00;99.90;;;;;;5110387;28;20679;-74
2022/04/06 12:42:57;;;;;;;1.70;1.30;;;19.00;99.90;;;;;;5110222;28;20561;-73
2022/04/06 12:45:27;;;;;;;2.33;1.38;;;19.00;99.90;;;;;;5104292;28;20206;-72
2022/04/06 12:48:19;;;;;;;2.40;1.40;;;19.00;99.90;;;;;;5110441;28;20569;-72
2022/04/06 12:50:51;;;;;;;2.10;1.35;;;19.00;99.90;;;;;;5103424;28;20197;-73
2022/04/06 12:53:22;;;;;;;2.00;1.50;;;19.00;99.90;;;;;;5106439;28;20657;-73
2022/04/06 12:56:12;;;;;;;2.00;1.27;;;19.00;99.90;;;;;;5110365;28;20194;-73
2022/04/06 12:58:45;;;;;;;1.38;1.20;;;19.00;99.90;;;;;;5110071;28;20294;-74
2022/04/06 13:01:15;;;;;;;2.00;1.20;;;19.00;99.90;;;;;;5110451;28;20248;-73
2022/04/06 13:03:59;;;;;;;1.40;1.30;;;19.00;99.90;;;;;;5110398;28;20271;-73
2022/04/06 13:06:33;;;;;;;1.88;1.40;;;19.00;99.90;;;;;;5110451;28;20214;-74
2022/04/06 13:09:04;;;;;;;1.65;1.40;;;19.00;99.90;;;;;;5110056;28;20285;-73
2022/04/06 13:11:35;;;;;;;2.10;1.52;;;18.90;99.90;;;;;;5110497;28;20547;-73
2022/04/06 13:14:06;;;;;;;1.98;1.58;;;18.90;99.90;;;;;;5110529;28;20206;-74
2022/04/06 13:16:38;;;;;;;2.85;1.77;;;18.90;99.90;;;;;;5110152;28;20210;-74
2022/04/06 13:19:10;;;;;;;2.63;2.05;;;18.90;99.90;;;;;;5110130;28;20268;-74
2022/04/06 13:21:43;;;;;;;1.88;1.50;;;19.00;99.90;;;;;;5110206;28;20198;-74
2022/04/06 13:24:13;;;;;;;2.83;1.58;;;18.90;99.90;;;;;;5110289;28;20710;-74